sensor_id;sensor_type;location;lat;lon;timestamp;pressure;altitude;pressure_sealevel;temperature;humidity
21240;BME280;10778;48.962;9.018;2023-07-24T00:00:24;98368.56;;;16.67;100.00
21240;BME280;10778;48.962;9.018;2023-07-24T00:02:50;98384.69;;;16.65;100.00
21240;BME280;10778;48.962;9.018;2023-07-24T00:05:16;98387.53;;;16.63;100.00
21240;BME280;10778;48.962;9.018;2023-07-24T00:07:42;98378.13;;;16.61;100.00
21240;BME280;10778;48.962;9.018;2023-07-24T00:10:08;98366.66;;;16.60;100.00
21240;BME280;10778;48.962;9.018;2023-07-24T00:12:35;98360.72;;;16.58;100.00
21240;BME280;10778;48.962;9.018;2023-07-24T00:15:01;98355.59;;;16.50;100.00
21240;BME280;10778;48.962;9.018;2023-07-24T00:17:27;98356.16;;;16.45;100.00
21240;BME280;10778;48.962;9.018;2023-07-24T00:19:53;98366.34;;;16.35;100.00
21240;BME280;10778;48.962;9.018;2023-07-24T00:22:19;98364.31;;;16.37;100.00
21240;BME280;10778;48.962;9.018;2023-07-24T00:24:45;98365.50;;;16.34;100.00
21240;BME280;10778;48.962;9.018;2023-07-24T00:27:11;98357.31;;;16.29;100.00
21240;BME280;10778;48.962;9.018;2023-07-24T00:29:37;98353.41;;;16.32;100.00
21240;BME280;10778;48.962;9.018;2023-07-24T00:32:04;98355.66;;;16.28;100.00
21240;BME280;10778;48.962;9.018;2023-07-24T00:34:30;98341.94;;;16.25;100.00
21240;BME280;10778;48.962;9.018;2023-07-24T00:36:56;98341.38;;;16.29;100.00
21240;BME280;10778;48.962;9.018;2023-07-24T00:39:23;98356.56;;;16.14;100.00
21240;BME280;10778;48.962;9.018;2023-07-24T00:41:50;98350.31;;;16.21;100.00
21240;BME280;10778;48.962;9.018;2023-07-24T00:44:18;98348.03;;;16.18;100.00
21240;BME280;10778;48.962;9.018;2023-07-24T00:46:44;98346.00;;;16.20;100.00
21240;BME280;10778;48.962;9.018;2023-07-24T00:49:10;98331.47;;;16.16;100.00
21240;BME280;10778;48.962;9.018;2023-07-24T00:51:36;98335.22;;;16.00;100.00
21240;BME280;10778;48.962;9.018;2023-07-24T00:54:04;98326.53;;;16.13;100.00
21240;BME280;10778;48.962;9.018;2023-07-24T00:56:31;98336.47;;;16.04;100.00
21240;BME280;10778;48.962;9.018;2023-07-24T00:58:59;98330.44;;;16.11;100.00
21240;BME280;10778;48.962;9.018;2023-07-24T01:01:26;98328.34;;;16.06;100.00
21240;BME280;10778;48.962;9.018;2023-07-24T01:03:52;98321.00;;;16.08;100.00
21240;BME280;10778;48.962;9.018;2023-07-24T01:06:18;98317.09;;;16.04;100.00
21240;BME280;10778;48.962;9.018;2023-07-24T01:08:44;98311.41;;;16.07;100.00
21240;BME280;10778;48.962;9.018;2023-07-24T01:11:21;98312.81;;;16.03;100.00
21240;BME280;10778;48.962;9.018;2023-07-24T01:14:06;98300.56;;;16.02;100.00
21240;BME280;10778;48.962;9.018;2023-07-24T01:16:37;98305.59;;;15.97;100.00
21240;BME280;10778;48.962;9.018;2023-07-24T01:19:12;98295.59;;;15.92;100.00
21240;BME280;10778;48.962;9.018;2023-07-24T01:22:08;98296.13;;;15.87;100.00
21240;BME280;10778;48.962;9.018;2023-07-24T01:27:47;98287.22;;;15.73;100.00
21240;BME280;10778;48.962;9.018;2023-07-24T01:30:16;98289.31;;;15.78;100.00
21240;BME280;10778;48.962;9.018;2023-07-24T01:32:43;98286.50;;;15.79;100.00
21240;BME280;10778;48.962;9.018;2023-07-24T01:35:09;98291.16;;;15.77;100.00
21240;BME280;10778;48.962;9.018;2023-07-24T01:37:36;98283.97;;;15.71;100.00
21240;BME280;10778;48.962;9.018;2023-07-24T01:40:06;98286.59;;;15.71;100.00
21240;BME280;10778;48.962;9.018;2023-07-24T01:42:33;98291.09;;;15.71;100.00
21240;BME280;10778;48.962;9.018;2023-07-24T01:45:01;98288.00;;;15.67;100.00
21240;BME280;10778;48.962;9.018;2023-07-24T01:47:27;98290.03;;;15.65;100.00
21240;BME280;10778;48.962;9.018;2023-07-24T01:49:53;98295.72;;;15.62;100.00
21240;BME280;10778;48.962;9.018;2023-07-24T01:52:19;98293.31;;;15.67;100.00
21240;BME280;10778;48.962;9.018;2023-07-24T01:54:45;98291.06;;;15.64;100.00
21240;BME280;10778;48.962;9.018;2023-07-24T01:57:11;98289.25;;;15.71;100.00
21240;BME280;10778;48.962;9.018;2023-07-24T01:59:37;98290.09;;;15.72;100.00
21240;BME280;10778;48.962;9.018;2023-07-24T02:02:04;98290.91;;;15.72;100.00
21240;BME280;10778;48.962;9.018;2023-07-24T02:04:30;98291.72;;;15.73;100.00
21240;BME280;10778;48.962;9.018;2023-07-24T02:06:56;98296.84;;;15.74;100.00
21240;BME280;10778;48.962;9.018;2023-07-24T02:09:22;98296.66;;;15.76;100.00
21240;BME280;10778;48.962;9.018;2023-07-24T02:11:48;98304.44;;;15.77;100.00
21240;BME280;10778;48.962;9.018;2023-07-24T02:14:17;98289.31;;;15.78;100.00
21240;BME280;10778;48.962;9.018;2023-07-24T02:16:43;98289.88;;;15.73;100.00
21240;BME280;10778;48.962;9.018;2023-07-24T02:19:09;98292.19;;;15.76;100.00
21240;BME280;10778;48.962;9.018;2023-07-24T02:21:35;98292.53;;;15.73;100.00
21240;BME280;10778;48.962;9.018;2023-07-24T02:24:01;98285.41;;;15.74;100.00
21240;BME280;10778;48.962;9.018;2023-07-24T02:26:27;98280.56;;;15.77;100.00
21240;BME280;10778;48.962;9.018;2023-07-24T02:28:54;98278.41;;;15.66;100.00
21240;BME280;10778;48.962;9.018;2023-07-24T02:31:21;98277.00;;;15.70;100.00
21240;BME280;10778;48.962;9.018;2023-07-24T02:33:47;98282.53;;;15.69;100.00
21240;BME280;10778;48.962;9.018;2023-07-24T02:36:13;98272.53;;;15.71;100.00
21240;BME280;10778;48.962;9.018;2023-07-24T02:38:40;98270.28;;;15.68;100.00
21240;BME280;10778;48.962;9.018;2023-07-24T02:41:07;98269.44;;;15.67;100.00
21240;BME280;10778;48.962;9.018;2023-07-24T02:43:35;98263.97;;;15.69;100.00
21240;BME280;10778;48.962;9.018;2023-07-24T02:46:01;98261.69;;;15.65;100.00
21240;BME280;10778;48.962;9.018;2023-07-24T02:48:28;98254.38;;;15.68;100.00
21240;BME280;10778;48.962;9.018;2023-07-24T02:50:54;98256.38;;;15.65;100.00
21240;BME280;10778;48.962;9.018;2023-07-24T02:53:21;98261.25;;;15.62;100.00
21240;BME280;10778;48.962;9.018;2023-07-24T02:55:47;98258.84;;;15.67;100.00
21240;BME280;10778;48.962;9.018;2023-07-24T02:58:13;98249.75;;;15.76;100.00
21240;BME280;10778;48.962;9.018;2023-07-24T03:00:40;98247.28;;;15.75;100.00
21240;BME280;10778;48.962;9.018;2023-07-24T03:03:07;98258.72;;;15.75;100.00
21240;BME280;10778;48.962;9.018;2023-07-24T03:05:36;98264.97;;;15.68;100.00
21240;BME280;10778;48.962;9.018;2023-07-24T03:08:02;98238.88;;;15.71;100.00
21240;BME280;10778;48.962;9.018;2023-07-24T03:10:30;98224.41;;;15.74;100.00
21240;BME280;10778;48.962;9.018;2023-07-24T03:12:56;98243.13;;;15.65;100.00
21240;BME280;10778;48.962;9.018;2023-07-24T03:15:22;98247.94;;;15.55;100.00
21240;BME280;10778;48.962;9.018;2023-07-24T03:17:48;98238.97;;;15.56;100.00
21240;BME280;10778;48.962;9.018;2023-07-24T03:20:16;98238.81;;;15.58;100.00
21240;BME280;10778;48.962;9.018;2023-07-24T03:22:43;98243.88;;;15.59;100.00
21240;BME280;10778;48.962;9.018;2023-07-24T03:25:09;98243.66;;;15.54;100.00
21240;BME280;10778;48.962;9.018;2023-07-24T03:27:36;98240.00;;;15.55;100.00
21240;BME280;10778;48.962;9.018;2023-07-24T03:30:02;98229.38;;;15.55;100.00
21240;BME280;10778;48.962;9.018;2023-07-24T03:32:30;98233.06;;;15.54;100.00
21240;BME280;10778;48.962;9.018;2023-07-24T03:34:56;98239.59;;;15.58;100.00
21240;BME280;10778;48.962;9.018;2023-07-24T03:37:22;98235.31;;;15.57;100.00
21240;BME280;10778;48.962;9.018;2023-07-24T03:39:48;98239.84;;;15.63;100.00
21240;BME280;10778;48.962;9.018;2023-07-24T03:42:25;98238.25;;;15.69;100.00
21240;BME280;10778;48.962;9.018;2023-07-24T03:44:52;98236.38;;;15.63;100.00
21240;BME280;10778;48.962;9.018;2023-07-24T03:47:18;98239.03;;;15.63;100.00
21240;BME280;10778;48.962;9.018;2023-07-24T03:49:44;98236.00;;;15.66;100.00
21240;BME280;10778;48.962;9.018;2023-07-24T03:52:10;98233.34;;;15.66;100.00
21240;BME280;10778;48.962;9.018;2023-07-24T03:54:37;98235.75;;;15.61;100.00
21240;BME280;10778;48.962;9.018;2023-07-24T03:57:03;98236.81;;;15.67;100.00
21240;BME280;10778;48.962;9.018;2023-07-24T03:59:30;98237.56;;;15.60;100.00
21240;BME280;10778;48.962;9.018;2023-07-24T04:01:56;98239.44;;;15.60;100.00
21240;BME280;10778;48.962;9.018;2023-07-24T04:04:22;98245.97;;;15.64;100.00
21240;BME280;10778;48.962;9.018;2023-07-24T04:06:48;98251.44;;;15.62;100.00
21240;BME280;10778;48.962;9.018;2023-07-24T04:09:15;98258.22;;;15.65;100.00
21240;BME280;10778;48.962;9.018;2023-07-24T04:11:42;98254.16;;;15.69;100.00
21240;BME280;10778;48.962;9.018;2023-07-24T04:14:08;98243.66;;;15.83;100.00
21240;BME280;10778;48.962;9.018;2023-07-24T04:16:34;98225.91;;;15.83;100.00
21240;BME280;10778;48.962;9.018;2023-07-24T04:19:01;98224.16;;;15.90;100.00
21240;BME280;10778;48.962;9.018;2023-07-24T04:21:27;98223.19;;;15.98;100.00
21240;BME280;10778;48.962;9.018;2023-07-24T04:23:53;98219.13;;;16.02;100.00
21240;BME280;10778;48.962;9.018;2023-07-24T04:26:19;98224.81;;;15.99;100.00
21240;BME280;10778;48.962;9.018;2023-07-24T04:28:45;98218.91;;;15.97;100.00
21240;BME280;10778;48.962;9.018;2023-07-24T04:31:11;98214.56;;;15.89;100.00
21240;BME280;10778;48.962;9.018;2023-07-24T04:33:37;98208.78;;;15.86;100.00
21240;BME280;10778;48.962;9.018;2023-07-24T04:36:04;98198.88;;;15.95;100.00
21240;BME280;10778;48.962;9.018;2023-07-24T04:38:30;98194.97;;;15.90;100.00
21240;BME280;10778;48.962;9.018;2023-07-24T04:40:56;98197.84;;;15.96;100.00
21240;BME280;10778;48.962;9.018;2023-07-24T04:43:22;98201.44;;;16.10;100.00
21240;BME280;10778;48.962;9.018;2023-07-24T04:45:48;98195.75;;;16.26;100.00
21240;BME280;10778;48.962;9.018;2023-07-24T04:48:14;98198.88;;;16.37;100.00
21240;BME280;10778;48.962;9.018;2023-07-24T04:50:40;98183.97;;;16.35;100.00
21240;BME280;10778;48.962;9.018;2023-07-24T04:53:06;98175.59;;;16.39;100.00
21240;BME280;10778;48.962;9.018;2023-07-24T04:55:32;98167.66;;;16.45;100.00
21240;BME280;10778;48.962;9.018;2023-07-24T04:57:58;98177.47;;;16.52;100.00
21240;BME280;10778;48.962;9.018;2023-07-24T05:00:24;98176.88;;;16.49;100.00
21240;BME280;10778;48.962;9.018;2023-07-24T05:02:50;98180.38;;;16.57;100.00
21240;BME280;10778;48.962;9.018;2023-07-24T05:05:16;98175.69;;;16.59;100.00
21240;BME280;10778;48.962;9.018;2023-07-24T05:07:42;98173.03;;;16.59;100.00
21240;BME280;10778;48.962;9.018;2023-07-24T05:10:08;98170.56;;;16.57;100.00
21240;BME280;10778;48.962;9.018;2023-07-24T05:12:34;98163.84;;;16.61;100.00
21240;BME280;10778;48.962;9.018;2023-07-24T05:15:00;98165.47;;;16.62;100.00
21240;BME280;10778;48.962;9.018;2023-07-24T05:17:26;98168.94;;;16.63;100.00
21240;BME280;10778;48.962;9.018;2023-07-24T05:19:52;98173.84;;;16.66;100.00
21240;BME280;10778;48.962;9.018;2023-07-24T05:22:18;98174.47;;;16.61;100.00
21240;BME280;10778;48.962;9.018;2023-07-24T05:24:44;98181.63;;;16.68;100.00
21240;BME280;10778;48.962;9.018;2023-07-24T05:27:10;98180.19;;;16.72;100.00
21240;BME280;10778;48.962;9.018;2023-07-24T05:29:38;98187.75;;;16.68;100.00
21240;BME280;10778;48.962;9.018;2023-07-24T05:32:04;98189.81;;;16.73;100.00
21240;BME280;10778;48.962;9.018;2023-07-24T05:34:30;98195.97;;;16.80;100.00
21240;BME280;10778;48.962;9.018;2023-07-24T05:36:56;98195.75;;;16.82;100.00
21240;BME280;10778;48.962;9.018;2023-07-24T05:39:22;98205.16;;;16.77;100.00
21240;BME280;10778;48.962;9.018;2023-07-24T05:41:48;98204.09;;;16.65;100.00
21240;BME280;10778;48.962;9.018;2023-07-24T05:44:14;98204.94;;;16.72;100.00
21240;BME280;10778;48.962;9.018;2023-07-24T05:46:40;98199.22;;;16.75;100.00
21240;BME280;10778;48.962;9.018;2023-07-24T05:49:06;98198.41;;;16.82;100.00
21240;BME280;10778;48.962;9.018;2023-07-24T05:51:32;98197.41;;;16.96;100.00
21240;BME280;10778;48.962;9.018;2023-07-24T05:53:58;98200.25;;;16.95;100.00
21240;BME280;10778;48.962;9.018;2023-07-24T05:56:24;98209.47;;;16.92;100.00
21240;BME280;10778;48.962;9.018;2023-07-24T05:58:50;98209.25;;;16.93;100.00
21240;BME280;10778;48.962;9.018;2023-07-24T06:01:16;98217.50;;;16.99;100.00
21240;BME280;10778;48.962;9.018;2023-07-24T06:03:42;98219.56;;;17.03;100.00
21240;BME280;10778;48.962;9.018;2023-07-24T06:06:08;98219.97;;;17.14;100.00
21240;BME280;10778;48.962;9.018;2023-07-24T06:08:34;98226.31;;;17.13;100.00
21240;BME280;10778;48.962;9.018;2023-07-24T06:11:00;98222.00;;;17.12;100.00
21240;BME280;10778;48.962;9.018;2023-07-24T06:13:26;98209.94;;;17.23;100.00
21240;BME280;10778;48.962;9.018;2023-07-24T06:15:52;98203.84;;;17.22;100.00
21240;BME280;10778;48.962;9.018;2023-07-24T06:18:18;98201.38;;;17.34;100.00
21240;BME280;10778;48.962;9.018;2023-07-24T06:20:44;98193.41;;;17.41;100.00
21240;BME280;10778;48.962;9.018;2023-07-24T06:23:10;98198.50;;;17.42;100.00
21240;BME280;10778;48.962;9.018;2023-07-24T06:25:36;98197.88;;;17.33;100.00
21240;BME280;10778;48.962;9.018;2023-07-24T06:28:03;98193.19;;;17.42;100.00
21240;BME280;10778;48.962;9.018;2023-07-24T06:30:29;98189.72;;;17.55;100.00
21240;BME280;10778;48.962;9.018;2023-07-24T06:32:55;98195.66;;;17.57;100.00
21240;BME280;10778;48.962;9.018;2023-07-24T06:35:21;98198.91;;;17.39;100.00
21240;BME280;10778;48.962;9.018;2023-07-24T06:37:47;98195.22;;;17.40;100.00
21240;BME280;10778;48.962;9.018;2023-07-24T06:40:13;98191.13;;;17.44;100.00
21240;BME280;10778;48.962;9.018;2023-07-24T06:42:39;98198.09;;;17.59;100.00
21240;BME280;10778;48.962;9.018;2023-07-24T06:45:06;98191.53;;;17.75;100.00
21240;BME280;10778;48.962;9.018;2023-07-24T06:47:32;98189.06;;;17.80;100.00
21240;BME280;10778;48.962;9.018;2023-07-24T06:49:58;98184.94;;;17.91;100.00
21240;BME280;10778;48.962;9.018;2023-07-24T06:52:24;98180.84;;;18.02;100.00
21240;BME280;10778;48.962;9.018;2023-07-24T06:54:50;98174.44;;;18.23;100.00
21240;BME280;10778;48.962;9.018;2023-07-24T06:57:16;98169.53;;;18.27;100.00
21240;BME280;10778;48.962;9.018;2023-07-24T06:59:42;98170.53;;;18.32;100.00
21240;BME280;10778;48.962;9.018;2023-07-24T07:02:08;98155.75;;;18.37;100.00
21240;BME280;10778;48.962;9.018;2023-07-24T07:04:34;98163.03;;;18.55;100.00
21240;BME280;10778;48.962;9.018;2023-07-24T07:07:00;98164.81;;;18.68;100.00
21240;BME280;10778;48.962;9.018;2023-07-24T07:09:26;98166.72;;;18.54;100.00
21240;BME280;10778;48.962;9.018;2023-07-24T07:11:52;98175.75;;;18.53;100.00
21240;BME280;10778;48.962;9.018;2023-07-24T07:14:18;98183.31;;;18.56;100.00
21240;BME280;10778;48.962;9.018;2023-07-24T07:16:44;98190.09;;;18.52;100.00
21240;BME280;10778;48.962;9.018;2023-07-24T07:19:13;98186.59;;;18.58;100.00
21240;BME280;10778;48.962;9.018;2023-07-24T07:21:39;98185.25;;;18.74;100.00
21240;BME280;10778;48.962;9.018;2023-07-24T07:24:05;98175.13;;;18.89;100.00
21240;BME280;10778;48.962;9.018;2023-07-24T07:26:31;98172.03;;;18.99;100.00
21240;BME280;10778;48.962;9.018;2023-07-24T07:28:57;98167.91;;;18.97;100.00
21240;BME280;10778;48.962;9.018;2023-07-24T07:31:23;98177.47;;;18.72;100.00
21240;BME280;10778;48.962;9.018;2023-07-24T07:33:49;98185.88;;;18.76;100.00
21240;BME280;10778;48.962;9.018;2023-07-24T07:36:15;98203.09;;;18.73;100.00
21240;BME280;10778;48.962;9.018;2023-07-24T07:38:41;98214.00;;;18.65;100.00
21240;BME280;10778;48.962;9.018;2023-07-24T07:41:07;98220.78;;;18.61;100.00
21240;BME280;10778;48.962;9.018;2023-07-24T07:43:33;98217.16;;;18.48;100.00
21240;BME280;10778;48.962;9.018;2023-07-24T07:46:00;98214.34;;;18.37;100.00
21240;BME280;10778;48.962;9.018;2023-07-24T07:48:26;98226.03;;;18.29;100.00
21240;BME280;10778;48.962;9.018;2023-07-24T07:50:52;98229.31;;;18.31;100.00
21240;BME280;10778;48.962;9.018;2023-07-24T07:53:18;98249.38;;;18.33;100.00
21240;BME280;10778;48.962;9.018;2023-07-24T07:55:44;98253.63;;;18.48;100.00
21240;BME280;10778;48.962;9.018;2023-07-24T07:58:10;98247.00;;;18.64;100.00
21240;BME280;10778;48.962;9.018;2023-07-24T08:00:36;98235.88;;;18.81;100.00
21240;BME280;10778;48.962;9.018;2023-07-24T08:03:05;98243.22;;;18.85;100.00
21240;BME280;10778;48.962;9.018;2023-07-24T08:05:31;98253.72;;;18.73;100.00
21240;BME280;10778;48.962;9.018;2023-07-24T08:07:58;98255.00;;;18.64;100.00
21240;BME280;10778;48.962;9.018;2023-07-24T08:10:24;98270.81;;;18.59;100.00
21240;BME280;10778;48.962;9.018;2023-07-24T08:12:50;98281.25;;;18.54;100.00
21240;BME280;10778;48.962;9.018;2023-07-24T08:15:16;98287.84;;;18.51;100.00
21240;BME280;10778;48.962;9.018;2023-07-24T08:17:42;98279.44;;;18.47;100.00
21240;BME280;10778;48.962;9.018;2023-07-24T08:20:08;98259.03;;;18.80;100.00
21240;BME280;10778;48.962;9.018;2023-07-24T08:22:34;98249.03;;;18.75;100.00
21240;BME280;10778;48.962;9.018;2023-07-24T08:25:00;98235.31;;;18.65;100.00
21240;BME280;10778;48.962;9.018;2023-07-24T08:27:26;98227.31;;;18.65;100.00
21240;BME280;10778;48.962;9.018;2023-07-24T08:29:52;98200.50;;;18.60;100.00
21240;BME280;10778;48.962;9.018;2023-07-24T08:32:20;98207.84;;;18.65;100.00
21240;BME280;10778;48.962;9.018;2023-07-24T08:34:47;98198.41;;;18.69;100.00
21240;BME280;10778;48.962;9.018;2023-07-24T08:37:13;98186.50;;;18.71;100.00
21240;BME280;10778;48.962;9.018;2023-07-24T08:39:39;98182.16;;;18.77;100.00
21240;BME280;10778;48.962;9.018;2023-07-24T08:42:11;98175.59;;;18.80;100.00
21240;BME280;10778;48.962;9.018;2023-07-24T08:44:38;98165.94;;;18.85;100.00
21240;BME280;10778;48.962;9.018;2023-07-24T08:47:06;98134.91;;;18.91;100.00
21240;BME280;10778;48.962;9.018;2023-07-24T08:49:37;98130.03;;;18.88;100.00
21240;BME280;10778;48.962;9.018;2023-07-24T08:52:05;98131.66;;;18.89;100.00
21240;BME280;10778;48.962;9.018;2023-07-24T08:54:32;98128.63;;;18.85;100.00
21240;BME280;10778;48.962;9.018;2023-07-24T08:57:01;98136.78;;;18.90;100.00
21240;BME280;10778;48.962;9.018;2023-07-24T08:59:27;98148.19;;;19.04;100.00
21240;BME280;10778;48.962;9.018;2023-07-24T09:01:55;98166.13;;;19.23;100.00
21240;BME280;10778;48.962;9.018;2023-07-24T09:04:21;98171.59;;;19.28;100.00
21240;BME280;10778;48.962;9.018;2023-07-24T09:06:47;98188.63;;;19.52;100.00
21240;BME280;10778;48.962;9.018;2023-07-24T09:09:14;98183.78;;;19.68;100.00
21240;BME280;10778;48.962;9.018;2023-07-24T09:11:52;98192.50;;;20.00;100.00
21240;BME280;10778;48.962;9.018;2023-07-24T09:14:22;98207.19;;;20.10;100.00
21240;BME280;10778;48.962;9.018;2023-07-24T09:16:49;98187.44;;;20.48;100.00
21240;BME280;10778;48.962;9.018;2023-07-24T09:19:21;98180.34;;;20.72;100.00
21240;BME280;10778;48.962;9.018;2023-07-24T09:21:47;98170.59;;;20.78;100.00
21240;BME280;10778;48.962;9.018;2023-07-24T09:24:14;98178.78;;;20.95;100.00
21240;BME280;10778;48.962;9.018;2023-07-24T09:26:51;98177.06;;;21.01;100.00
21240;BME280;10778;48.962;9.018;2023-07-24T09:29:18;98184.56;;;21.23;100.00
21240;BME280;10778;48.962;9.018;2023-07-24T09:31:44;98183.16;;;21.20;100.00
21240;BME280;10778;48.962;9.018;2023-07-24T09:34:17;98190.16;;;21.21;100.00
21240;BME280;10778;48.962;9.018;2023-07-24T09:36:44;98174.34;;;21.31;100.00
21240;BME280;10778;48.962;9.018;2023-07-24T09:39:11;98169.22;;;21.30;100.00
21240;BME280;10778;48.962;9.018;2023-07-24T09:41:40;98153.28;;;21.23;100.00
21240;BME280;10778;48.962;9.018;2023-07-24T09:44:07;98167.47;;;21.24;100.00
21240;BME280;10778;48.962;9.018;2023-07-24T09:46:33;98163.88;;;21.42;98.15
21240;BME280;10778;48.962;9.018;2023-07-24T09:49:00;98170.38;;;21.46;100.00
21240;BME280;10778;48.962;9.018;2023-07-24T09:51:28;98179.56;;;21.26;100.00
21240;BME280;10778;48.962;9.018;2023-07-24T09:54:04;98181.44;;;21.26;100.00
21240;BME280;10778;48.962;9.018;2023-07-24T09:56:33;98181.19;;;21.15;100.00
21240;BME280;10778;48.962;9.018;2023-07-24T09:59:00;98195.09;;;21.06;100.00
21240;BME280;10778;48.962;9.018;2023-07-24T10:01:28;98192.53;;;20.99;100.00
21240;BME280;10778;48.962;9.018;2023-07-24T10:03:55;98193.91;;;20.89;100.00
21240;BME280;10778;48.962;9.018;2023-07-24T10:06:21;98195.84;;;20.82;100.00
21240;BME280;10778;48.962;9.018;2023-07-24T10:08:48;98198.13;;;20.97;100.00
21240;BME280;10778;48.962;9.018;2023-07-24T10:11:14;98190.09;;;20.97;100.00
21240;BME280;10778;48.962;9.018;2023-07-24T10:13:41;98195.28;;;20.92;100.00
21240;BME280;10778;48.962;9.018;2023-07-24T10:16:07;98193.00;;;20.96;100.00
21240;BME280;10778;48.962;9.018;2023-07-24T10:18:35;98195.28;;;20.92;100.00
21240;BME280;10778;48.962;9.018;2023-07-24T10:21:06;98202.28;;;20.93;100.00
21240;BME280;10778;48.962;9.018;2023-07-24T10:23:37;98207.38;;;20.83;100.00
21240;BME280;10778;48.962;9.018;2023-07-24T10:26:04;98205.75;;;20.82;100.00
21240;BME280;10778;48.962;9.018;2023-07-24T10:28:32;98206.09;;;20.67;100.00
21240;BME280;10778;48.962;9.018;2023-07-24T10:31:00;98207.22;;;20.59;100.00
21240;BME280;10778;48.962;9.018;2023-07-24T10:33:30;98209.84;;;20.47;100.00
21240;BME280;10778;48.962;9.018;2023-07-24T10:36:07;98217.50;;;20.25;100.00
21240;BME280;10778;48.962;9.018;2023-07-24T10:38:37;98208.31;;;20.21;100.00
21240;BME280;10778;48.962;9.018;2023-07-24T10:41:05;98196.28;;;20.11;100.00
21240;BME280;10778;48.962;9.018;2023-07-24T10:43:49;98205.50;;;19.97;100.00
21240;BME280;10778;48.962;9.018;2023-07-24T10:46:17;98204.50;;;19.91;100.00
21240;BME280;10778;48.962;9.018;2023-07-24T10:48:47;98203.91;;;19.89;100.00
21240;BME280;10778;48.962;9.018;2023-07-24T10:51:13;98210.25;;;19.69;100.00
21240;BME280;10778;48.962;9.018;2023-07-24T10:53:47;98210.66;;;19.66;100.00
21240;BME280;10778;48.962;9.018;2023-07-24T10:56:15;98216.28;;;19.58;100.00
21240;BME280;10778;48.962;9.018;2023-07-24T10:58:41;98201.31;;;19.57;100.00
21240;BME280;10778;48.962;9.018;2023-07-24T11:01:08;98192.19;;;19.46;100.00
21240;BME280;10778;48.962;9.018;2023-07-24T11:03:40;98189.56;;;19.39;100.00
21240;BME280;10778;48.962;9.018;2023-07-24T11:06:13;98185.91;;;19.33;100.00
21240;BME280;10778;48.962;9.018;2023-07-24T11:08:39;98173.03;;;19.30;100.00
21240;BME280;10778;48.962;9.018;2023-07-24T11:11:07;98175.91;;;19.29;100.00
21240;BME280;10778;48.962;9.018;2023-07-24T11:13:37;98161.81;;;19.22;100.00
21240;BME280;10778;48.962;9.018;2023-07-24T11:16:05;98160.13;;;19.27;100.00
21240;BME280;10778;48.962;9.018;2023-07-24T11:18:31;98159.63;;;19.37;100.00
21240;BME280;10778;48.962;9.018;2023-07-24T11:20:57;98161.91;;;19.33;100.00
21240;BME280;10778;48.962;9.018;2023-07-24T11:23:23;98162.06;;;19.39;100.00
21240;BME280;10778;48.962;9.018;2023-07-24T11:25:54;98139.97;;;19.57;100.00
21240;BME280;10778;48.962;9.018;2023-07-24T11:28:20;98115.13;;;19.56;100.00
21240;BME280;10778;48.962;9.018;2023-07-24T11:30:46;98089.41;;;19.62;100.00
21240;BME280;10778;48.962;9.018;2023-07-24T11:33:14;98082.00;;;19.64;100.00
21240;BME280;10778;48.962;9.018;2023-07-24T11:35:41;98073.25;;;19.57;100.00
21240;BME280;10778;48.962;9.018;2023-07-24T11:38:09;98059.47;;;19.60;100.00
21240;BME280;10778;48.962;9.018;2023-07-24T11:40:40;98072.06;;;19.53;100.00
21240;BME280;10778;48.962;9.018;2023-07-24T11:43:17;98100.00;;;19.69;100.00
21240;BME280;10778;48.962;9.018;2023-07-24T11:45:44;98105.81;;;20.03;100.00
21240;BME280;10778;48.962;9.018;2023-07-24T11:48:12;98113.56;;;20.54;100.00
21240;BME280;10778;48.962;9.018;2023-07-24T11:50:42;98117.81;;;21.16;100.00
21240;BME280;10778;48.962;9.018;2023-07-24T11:53:21;98112.34;;;21.35;100.00
21240;BME280;10778;48.962;9.018;2023-07-24T11:55:49;98116.97;;;21.39;100.00
21240;BME280;10778;48.962;9.018;2023-07-24T11:58:17;98114.78;;;21.00;100.00
21240;BME280;10778;48.962;9.018;2023-07-24T12:00:45;98119.75;;;20.85;100.00
21240;BME280;10778;48.962;9.018;2023-07-24T12:03:12;98121.13;;;20.87;100.00
21240;BME280;10778;48.962;9.018;2023-07-24T12:05:42;98124.25;;;20.54;100.00
21240;BME280;10778;48.962;9.018;2023-07-24T12:08:08;98138.34;;;20.30;100.00
21240;BME280;10778;48.962;9.018;2023-07-24T12:10:38;98155.44;;;20.11;100.00
21240;BME280;10778;48.962;9.018;2023-07-24T12:13:05;98161.44;;;20.06;100.00
21240;BME280;10778;48.962;9.018;2023-07-24T12:15:31;98156.41;;;19.98;100.00
21240;BME280;10778;48.962;9.018;2023-07-24T12:17:59;98163.00;;;19.95;100.00
21240;BME280;10778;48.962;9.018;2023-07-24T12:20:27;98158.16;;;19.85;100.00
21240;BME280;10778;48.962;9.018;2023-07-24T12:22:53;98150.50;;;19.89;100.00
21240;BME280;10778;48.962;9.018;2023-07-24T12:25:19;98155.16;;;19.75;100.00
21240;BME280;10778;48.962;9.018;2023-07-24T12:27:46;98157.47;;;19.71;100.00
21240;BME280;10778;48.962;9.018;2023-07-24T12:30:13;98157.81;;;19.75;100.00
21240;BME280;10778;48.962;9.018;2023-07-24T12:32:39;98151.16;;;19.66;100.00
21240;BME280;10778;48.962;9.018;2023-07-24T12:35:06;98153.00;;;19.65;100.00
21240;BME280;10778;48.962;9.018;2023-07-24T12:37:33;98142.72;;;19.69;100.00
21240;BME280;10778;48.962;9.018;2023-07-24T12:39:59;98145.06;;;19.58;100.00
21240;BME280;10778;48.962;9.018;2023-07-24T12:42:25;98146.78;;;19.71;100.00
21240;BME280;10778;48.962;9.018;2023-07-24T12:44:52;98126.06;;;19.92;100.00
21240;BME280;10778;48.962;9.018;2023-07-24T12:47:54;98139.19;;;19.94;100.00
21240;BME280;10778;48.962;9.018;2023-07-24T12:50:21;98132.34;;;19.79;100.00
21240;BME280;10778;48.962;9.018;2023-07-24T12:52:49;98137.16;;;19.70;100.00